Wednesday, April 23, 2014
11:50 UTC
  |  Log In   |  Register Free
Airport Search:

Williamsburg-Jamestown Airport
(KJGG)

Williamsburg-Jamestown Airport Diagram
No Airport Diagram Available

FAA data valid effective April 3, 2014 until May 29, 2014 (unless otherwise noted).

 
 
 
 
 
 
 
 
 
 
 
 
 
 

Current Aviation Weather for Williamsburg-Jamestown Airport (KJGG)

The most recent METAR observation for KJGG was updated at: 1055 UTC
METAR Summary (Translated METAR)
KJGG
231055Z AUTO 35007G15KT 10SM CLR 12/05 A2974 RMK AO1
KFAF
(8.2 nm SE from KJGG)
231058Z AUTO 36007KT 10SM CLR 13/05 A2972 RMK AO2 SLP067 T01280053 $
TAF Summary (Translated TAF)
KFAF
(8.2 nm SE from KJGG)
2310/2416 34010G15KT 9999 SCT200 QNH2966INS BECMG 2314/2315 32020G30KT 9999 FEW060 510003 QNH2974INS BECMG 2323/2324 31012KT 9999 FEW050 QNH2980INS BECMG 2414/2415 34020G25KT 9999 SKC QNH3005INS TX18/2320Z TN04/2408Z
KPHF
(12.5 nm SE from KJGG)
230546Z 2306/2406 27006KT P6SM SCT100 BKN250 FM230900 34013G20KT P6SM SCT100 FM231400 31017G26KT P6SM SKC FM232300 33010KT P6SM SKC
  Airport Weather Conditions for KJGG

 Current Weather at JGG
55° F
Fair
North winds at 8.1 mph
JGG NOAA Radar

Pressure: 29.73 in
Humidity: 59%
Wind: from the North at 8.1 gusting to 16.1 MPH (7 gusting to 14 KT)
Dew Point: 41.0°F
Visibility: 10.00 mi


Airport Weather Forecast for KJGG

Translated METAR and TAF for KJGG
Translated METAR for KJGG (1150 UTC 23 April 2014)
found at http://aviationweather.gov/adds/metars/
 
METAR text: KJGG 231135Z AUTO 35009KT 10SM CLR 13/04 A2976 RMK AO1
Conditions at: KJGG (WILLIAMSBURG , VA, US) observed 1135 UTC 23 April 2014
Temperature: 13.0°C (55°F)
Dewpoint: 4.0°C (39°F) [RH = 54%]
Pressure (altimeter): 29.76 inches Hg (1007.9 mb)
Winds: from the N (350 degrees) at 10 MPH (9 knots; 4.7 m/s)
Visibility: 10 or more miles (16+ km)
Ceiling: at least 12,000 feet AGL
Clouds: sky clear below 12,000 feet AGL
Weather: automated observation with no human augmentation;
there may or may not be significant weather present at this time
Translated TAF for KJGG

There is no translated TAF available for this airport

Find All Airport Services Find A Hotel Find A Rental Car Find A Golf Course Find A Restaurant $100 Hamburger



FBO's on the Field
FBO Company Facility Photos Services Transportation Aviation Fuel Prices: Prices include tax
Catering Weather Repair Courtesy Rental Type 100LL JetA JetA+ MOGAS 8087
 
Williamsburg-Jamestown

This FBO has not yet been rated
FS:Shell
Last Updated: Apr-02
Login to update fuel prices
SS:
Contact Williamsburg-JamestownMore FBO Information
 
Add another FBO Facility Photos Catering Weather Repair Courtesy Rental Type 100LL JetA JetA+ MOGAS 8087
Services Transportation Aviation Fuel Prices: Prices include tax


GlobalAir.com Airport Resource Center model-print
model-print
model-print
model-print